sensor_id;sensor_type;location;lat;lon;timestamp;pressure;altitude;pressure_sealevel;temperature;humidity
60240;BME280;46102;39.012;-7.064;2023-04-24T00:00:11;98562.84;;;16.15;66.95
60240;BME280;46102;39.012;-7.064;2023-04-24T00:02:16;98563.53;;;16.12;67.20
60240;BME280;46102;39.012;-7.064;2023-04-24T00:04:17;98559.44;;;16.06;67.28
60240;BME280;46102;39.012;-7.064;2023-04-24T00:06:18;98558.16;;;16.03;67.48
60240;BME280;46102;39.012;-7.064;2023-04-24T00:08:19;98549.78;;;15.99;67.54
60240;BME280;46102;39.012;-7.064;2023-04-24T00:10:20;98549.66;;;15.96;67.65
60240;BME280;46102;39.012;-7.064;2023-04-24T00:12:21;98556.03;;;15.96;67.51
60240;BME280;46102;39.012;-7.064;2023-04-24T00:14:22;98542.19;;;15.96;67.63
60240;BME280;46102;39.012;-7.064;2023-04-24T00:16:23;98549.66;;;15.96;67.72
60240;BME280;46102;39.012;-7.064;2023-04-24T00:18:23;98550.28;;;15.89;67.75
60240;BME280;46102;39.012;-7.064;2023-04-24T00:20:24;98553.16;;;15.93;67.86
60240;BME280;46102;39.012;-7.064;2023-04-24T00:22:25;98557.31;;;15.87;68.15
60240;BME280;46102;39.012;-7.064;2023-04-24T00:24:27;98554.00;;;15.81;68.38
60240;BME280;46102;39.012;-7.064;2023-04-24T00:26:27;98555.28;;;15.84;68.45
60240;BME280;46102;39.012;-7.064;2023-04-24T00:28:30;98551.13;;;15.77;68.48
60240;BME280;46102;39.012;-7.064;2023-04-24T00:30:31;98540.00;;;15.74;68.63
60240;BME280;46102;39.012;-7.064;2023-04-24T00:32:32;98546.09;;;15.67;68.85
60240;BME280;46102;39.012;-7.064;2023-04-24T00:34:33;98546.44;;;15.66;69.09
60240;BME280;46102;39.012;-7.064;2023-04-24T00:36:34;98538.81;;;15.62;69.17
60240;BME280;46102;39.012;-7.064;2023-04-24T00:38:35;98540.78;;;15.62;69.31
60240;BME280;46102;39.012;-7.064;2023-04-24T00:40:37;98528.38;;;15.56;69.63
60240;BME280;46102;39.012;-7.064;2023-04-24T00:42:39;98532.53;;;15.50;69.78
60240;BME280;46102;39.012;-7.064;2023-04-24T00:44:40;98536.00;;;15.47;69.76
60240;BME280;46102;39.012;-7.064;2023-04-24T00:46:42;98532.69;;;15.41;69.88
60240;BME280;46102;39.012;-7.064;2023-04-24T00:48:43;98533.59;;;15.45;70.03
60240;BME280;46102;39.012;-7.064;2023-04-24T00:50:44;98536.50;;;15.36;70.13
60240;BME280;46102;39.012;-7.064;2023-04-24T00:52:48;98534.06;;;15.35;70.27
60240;BME280;46102;39.012;-7.064;2023-04-24T00:54:49;98533.59;;;15.33;70.53
60240;BME280;46102;39.012;-7.064;2023-04-24T00:56:50;98542.16;;;15.28;70.53
60240;BME280;46102;39.012;-7.064;2023-04-24T00:58:51;98554.47;;;15.30;70.77
60240;BME280;46102;39.012;-7.064;2023-04-24T01:00:52;98547.13;;;15.22;71.18
60240;BME280;46102;39.012;-7.064;2023-04-24T01:02:55;98557.72;;;15.20;71.74
60240;BME280;46102;39.012;-7.064;2023-04-24T01:04:56;98549.78;;;15.18;72.11
60240;BME280;46102;39.012;-7.064;2023-04-24T01:06:57;98553.25;;;15.15;72.45
60240;BME280;46102;39.012;-7.064;2023-04-24T01:08:58;98551.41;;;15.07;72.88
60240;BME280;46102;39.012;-7.064;2023-04-24T01:11:03;98553.91;;;15.12;73.17
60240;BME280;46102;39.012;-7.064;2023-04-24T01:13:04;98550.91;;;15.17;73.31
60240;BME280;46102;39.012;-7.064;2023-04-24T01:15:05;98551.94;;;15.13;73.84
60240;BME280;46102;39.012;-7.064;2023-04-24T01:17:07;98550.47;;;15.03;74.14
60240;BME280;46102;39.012;-7.064;2023-04-24T01:19:10;98559.94;;;15.02;74.31
60240;BME280;46102;39.012;-7.064;2023-04-24T01:21:14;98559.94;;;15.02;74.59
60240;BME280;46102;39.012;-7.064;2023-04-24T01:23:15;98561.53;;;15.03;74.92
60240;BME280;46102;39.012;-7.064;2023-04-24T01:25:16;98565.19;;;14.95;75.17
60240;BME280;46102;39.012;-7.064;2023-04-24T01:27:17;98560.84;;;14.94;75.34
60240;BME280;46102;39.012;-7.064;2023-04-24T01:29:19;98554.75;;;14.88;75.40
60240;BME280;46102;39.012;-7.064;2023-04-24T01:31:20;98559.59;;;14.91;75.38
60240;BME280;46102;39.012;-7.064;2023-04-24T01:33:21;98558.53;;;14.96;75.37
60240;BME280;46102;39.012;-7.064;2023-04-24T01:35:22;98557.84;;;14.87;75.67
60240;BME280;46102;39.012;-7.064;2023-04-24T01:37:23;98552.00;;;14.88;75.95
60240;BME280;46102;39.012;-7.064;2023-04-24T01:39:24;98557.84;;;14.87;76.06
60240;BME280;46102;39.012;-7.064;2023-04-24T01:41:28;98557.25;;;14.81;76.29
60240;BME280;46102;39.012;-7.064;2023-04-24T01:43:29;98553.94;;;14.75;76.35
60240;BME280;46102;39.012;-7.064;2023-04-24T01:45:32;98561.31;;;14.71;76.65
60240;BME280;46102;39.012;-7.064;2023-04-24T01:47:33;98551.19;;;14.75;76.59
60240;BME280;46102;39.012;-7.064;2023-04-24T01:49:34;98548.06;;;14.65;76.75
60240;BME280;46102;39.012;-7.064;2023-04-24T01:51:35;98551.63;;;14.65;76.92
60240;BME280;46102;39.012;-7.064;2023-04-24T01:53:37;98545.63;;;14.63;76.92
60240;BME280;46102;39.012;-7.064;2023-04-24T01:55:38;98541.16;;;14.58;77.00
60240;BME280;46102;39.012;-7.064;2023-04-24T01:57:39;98545.88;;;14.58;76.87
60240;BME280;46102;39.012;-7.064;2023-04-24T01:59:40;98551.84;;;14.60;76.88
60240;BME280;46102;39.012;-7.064;2023-04-24T02:01:41;98543.56;;;14.60;76.68
60240;BME280;46102;39.012;-7.064;2023-04-24T02:03:42;98546.56;;;14.55;76.71
60240;BME280;46102;39.012;-7.064;2023-04-24T02:05:44;98545.41;;;14.56;76.50
60240;BME280;46102;39.012;-7.064;2023-04-24T02:07:45;98537.00;;;14.52;76.97
60240;BME280;46102;39.012;-7.064;2023-04-24T02:09:46;98535.38;;;14.51;76.87
60240;BME280;46102;39.012;-7.064;2023-04-24T02:11:47;98525.03;;;14.48;76.94
60240;BME280;46102;39.012;-7.064;2023-04-24T02:13:48;98527.31;;;14.46;77.15
60240;BME280;46102;39.012;-7.064;2023-04-24T02:15:48;98532.16;;;14.49;76.80
60240;BME280;46102;39.012;-7.064;2023-04-24T02:17:49;98535.59;;;14.46;76.67
60240;BME280;46102;39.012;-7.064;2023-04-24T02:19:50;98540.31;;;14.46;76.67
60240;BME280;46102;39.012;-7.064;2023-04-24T02:21:51;98543.41;;;14.44;76.68
60240;BME280;46102;39.012;-7.064;2023-04-24T02:23:52;98532.16;;;14.49;76.52
60240;BME280;46102;39.012;-7.064;2023-04-24T02:25:53;98531.44;;;14.40;76.85
60240;BME280;46102;39.012;-7.064;2023-04-24T02:27:54;98537.66;;;14.37;77.04
60240;BME280;46102;39.012;-7.064;2023-04-24T02:29:54;98536.97;;;14.40;76.68
60240;BME280;46102;39.012;-7.064;2023-04-24T02:31:55;98535.84;;;14.41;76.76
60240;BME280;46102;39.012;-7.064;2023-04-24T02:33:56;98532.59;;;14.39;76.66
60240;BME280;46102;39.012;-7.064;2023-04-24T02:35:57;98551.22;;;14.42;76.61
60240;BME280;46102;39.012;-7.064;2023-04-24T02:37:58;98553.06;;;14.38;76.54
60240;BME280;46102;39.012;-7.064;2023-04-24T02:39:58;98550.19;;;14.34;76.80
60240;BME280;46102;39.012;-7.064;2023-04-24T02:41:59;98542.34;;;14.24;76.86
60240;BME280;46102;39.012;-7.064;2023-04-24T02:44:02;98540.84;;;14.27;76.93
60240;BME280;46102;39.012;-7.064;2023-04-24T02:46:02;98541.53;;;14.24;76.95
60240;BME280;46102;39.012;-7.064;2023-04-24T02:48:03;98544.63;;;14.22;76.86
60240;BME280;46102;39.012;-7.064;2023-04-24T02:50:04;98538.09;;;14.27;76.68
60240;BME280;46102;39.012;-7.064;2023-04-24T02:52:05;98540.75;;;14.23;76.82
60240;BME280;46102;39.012;-7.064;2023-04-24T02:54:09;98539.91;;;14.23;76.75
60240;BME280;46102;39.012;-7.064;2023-04-24T02:56:10;98540.03;;;14.26;76.91
60240;BME280;46102;39.012;-7.064;2023-04-24T02:58:12;98535.56;;;14.22;76.78
60240;BME280;46102;39.012;-7.064;2023-04-24T03:00:13;98537.50;;;14.21;76.97
60240;BME280;46102;39.012;-7.064;2023-04-24T03:02:14;98527.50;;;14.16;77.06
60240;BME280;46102;39.012;-7.064;2023-04-24T03:04:15;98534.16;;;14.15;77.19
60240;BME280;46102;39.012;-7.064;2023-04-24T03:06:16;98529.44;;;14.16;77.45
60240;BME280;46102;39.012;-7.064;2023-04-24T03:08:17;98525.78;;;14.12;77.43
60240;BME280;46102;39.012;-7.064;2023-04-24T03:10:18;98529.19;;;14.09;77.69
60240;BME280;46102;39.012;-7.064;2023-04-24T03:12:19;98525.63;;;14.08;77.64
60240;BME280;46102;39.012;-7.064;2023-04-24T03:14:20;98522.75;;;14.05;77.78
60240;BME280;46102;39.012;-7.064;2023-04-24T03:16:21;98520.69;;;14.02;77.59
60240;BME280;46102;39.012;-7.064;2023-04-24T03:18:21;98524.22;;;14.02;77.40
60240;BME280;46102;39.012;-7.064;2023-04-24T03:20:24;98521.72;;;14.09;77.13
60240;BME280;46102;39.012;-7.064;2023-04-24T03:22:26;98525.09;;;14.15;76.56
60240;BME280;46102;39.012;-7.064;2023-04-24T03:24:27;98523.00;;;14.12;76.57
60240;BME280;46102;39.012;-7.064;2023-04-24T03:26:30;98525.63;;;14.08;76.52
60240;BME280;46102;39.012;-7.064;2023-04-24T03:28:48;98533.13;;;14.08;76.26
60240;BME280;46102;39.012;-7.064;2023-04-24T03:30:48;98535.41;;;14.06;76.26
60240;BME280;46102;39.012;-7.064;2023-04-24T03:32:50;98538.84;;;14.03;76.14
60240;BME280;46102;39.012;-7.064;2023-04-24T03:34:56;98530.69;;;14.06;76.11
60240;BME280;46102;39.012;-7.064;2023-04-24T03:36:57;98529.56;;;14.07;75.88
60240;BME280;46102;39.012;-7.064;2023-04-24T03:38:59;98530.00;;;14.09;75.79
60240;BME280;46102;39.012;-7.064;2023-04-24T03:41:06;98533.59;;;14.10;75.42
60240;BME280;46102;39.012;-7.064;2023-04-24T03:43:13;98530.81;;;14.10;75.28
60240;BME280;46102;39.012;-7.064;2023-04-24T03:45:14;98527.69;;;14.11;75.06
60240;BME280;46102;39.012;-7.064;2023-04-24T03:47:19;98537.47;;;14.09;74.74
60240;BME280;46102;39.012;-7.064;2023-04-24T03:49:21;98542.31;;;14.12;74.65
60240;BME280;46102;39.012;-7.064;2023-04-24T03:51:23;98540.38;;;14.12;74.57
60240;BME280;46102;39.012;-7.064;2023-04-24T03:53:27;98530.13;;;14.13;74.60
60240;BME280;46102;39.012;-7.064;2023-04-24T03:55:29;98532.56;;;14.14;74.47
60240;BME280;46102;39.012;-7.064;2023-04-24T03:57:30;98538.88;;;14.15;74.39
60240;BME280;46102;39.012;-7.064;2023-04-24T03:59:46;98531.63;;;14.10;74.30
60240;BME280;46102;39.012;-7.064;2023-04-24T04:01:51;98530.13;;;14.13;73.95
60240;BME280;46102;39.012;-7.064;2023-04-24T04:03:52;98533.81;;;14.17;73.67
60240;BME280;46102;39.012;-7.064;2023-04-24T04:05:57;98532.88;;;14.13;73.76
60240;BME280;46102;39.012;-7.064;2023-04-24T04:07:58;98533.69;;;14.13;73.74
60240;BME280;46102;39.012;-7.064;2023-04-24T04:09:59;98535.88;;;14.08;74.06
60240;BME280;46102;39.012;-7.064;2023-04-24T04:12:00;98534.94;;;14.04;74.34
60240;BME280;46102;39.012;-7.064;2023-04-24T04:14:01;98522.97;;;14.00;74.80
60240;BME280;46102;39.012;-7.064;2023-04-24T04:16:02;98519.63;;;13.94;75.03
60240;BME280;46102;39.012;-7.064;2023-04-24T04:18:03;98517.69;;;13.94;74.97
60240;BME280;46102;39.012;-7.064;2023-04-24T04:20:05;98509.41;;;13.94;74.69
60240;BME280;46102;39.012;-7.064;2023-04-24T04:22:09;98508.72;;;13.98;74.26
60240;BME280;46102;39.012;-7.064;2023-04-24T04:24:19;98517.44;;;14.00;74.31
60240;BME280;46102;39.012;-7.064;2023-04-24T04:26:22;98514.69;;;14.00;73.84
60240;BME280;46102;39.012;-7.064;2023-04-24T04:28:40;98521.94;;;14.04;73.60
60240;BME280;46102;39.012;-7.064;2023-04-24T04:30:42;98516.09;;;14.06;73.50
60240;BME280;46102;39.012;-7.064;2023-04-24T04:32:43;98523.56;;;14.05;73.45
60240;BME280;46102;39.012;-7.064;2023-04-24T04:34:43;98523.22;;;14.07;72.92
60240;BME280;46102;39.012;-7.064;2023-04-24T04:36:46;98516.66;;;14.11;72.49
60240;BME280;46102;39.012;-7.064;2023-04-24T04:39:01;98512.88;;;14.16;71.83
60240;BME280;46102;39.012;-7.064;2023-04-24T04:41:26;98510.41;;;14.23;71.03
60240;BME280;46102;39.012;-7.064;2023-04-24T04:43:27;98511.19;;;14.24;70.52
60240;BME280;46102;39.012;-7.064;2023-04-24T04:45:29;98510.63;;;14.30;69.77
60240;BME280;46102;39.012;-7.064;2023-04-24T04:47:49;98501.31;;;14.35;69.35
60240;BME280;46102;39.012;-7.064;2023-04-24T04:49:50;98508.44;;;14.36;69.02
60240;BME280;46102;39.012;-7.064;2023-04-24T04:51:57;98504.41;;;14.33;69.24
60240;BME280;46102;39.012;-7.064;2023-04-24T04:54:00;98506.03;;;14.34;69.08
60240;BME280;46102;39.012;-7.064;2023-04-24T04:56:01;98506.03;;;14.34;69.00
60240;BME280;46102;39.012;-7.064;2023-04-24T04:58:10;98503.47;;;14.29;69.03
60240;BME280;46102;39.012;-7.064;2023-04-24T05:00:12;98507.06;;;14.30;68.92
60240;BME280;46102;39.012;-7.064;2023-04-24T05:02:21;98507.75;;;14.27;69.05
60240;BME280;46102;39.012;-7.064;2023-04-24T05:04:21;98510.16;;;14.28;69.01
60240;BME280;46102;39.012;-7.064;2023-04-24T05:06:22;98511.66;;;14.26;69.11
60240;BME280;46102;39.012;-7.064;2023-04-24T05:08:23;98527.41;;;14.25;69.13
60240;BME280;46102;39.012;-7.064;2023-04-24T05:10:24;98533.84;;;14.29;68.56
60240;BME280;46102;39.012;-7.064;2023-04-24T05:12:27;98537.06;;;14.31;68.65
60240;BME280;46102;39.012;-7.064;2023-04-24T05:14:28;98540.63;;;14.32;68.49
60240;BME280;46102;39.012;-7.064;2023-04-24T05:16:29;98532.47;;;14.35;68.23
60240;BME280;46102;39.012;-7.064;2023-04-24T05:18:31;98544.31;;;14.36;68.45
60240;BME280;46102;39.012;-7.064;2023-04-24T05:20:33;98529.84;;;14.39;68.17
60240;BME280;46102;39.012;-7.064;2023-04-24T05:22:34;98526.63;;;14.37;68.20
60240;BME280;46102;39.012;-7.064;2023-04-24T05:24:37;98536.03;;;14.36;68.26
60240;BME280;46102;39.012;-7.064;2023-04-24T05:26:52;98534.91;;;14.37;68.31
60240;BME280;46102;39.012;-7.064;2023-04-24T05:28:58;98542.38;;;14.36;68.38
60240;BME280;46102;39.012;-7.064;2023-04-24T05:30:58;98539.16;;;14.34;68.17
60240;BME280;46102;39.012;-7.064;2023-04-24T05:33:00;98542.94;;;14.30;68.51
60240;BME280;46102;39.012;-7.064;2023-04-24T05:35:01;98542.13;;;14.29;68.46
60240;BME280;46102;39.012;-7.064;2023-04-24T05:37:02;98548.78;;;14.28;68.57
60240;BME280;46102;39.012;-7.064;2023-04-24T05:39:03;98548.78;;;14.28;68.37
60240;BME280;46102;39.012;-7.064;2023-04-24T05:41:05;98539.59;;;14.24;68.46
60240;BME280;46102;39.012;-7.064;2023-04-24T05:43:06;98550.75;;;14.28;68.41
60240;BME280;46102;39.012;-7.064;2023-04-24T05:45:07;98555.00;;;14.25;68.53
60240;BME280;46102;39.012;-7.064;2023-04-24T05:47:09;98557.75;;;14.25;68.43
60240;BME280;46102;39.012;-7.064;2023-04-24T05:49:10;98562.03;;;14.35;68.06
60240;BME280;46102;39.012;-7.064;2023-04-24T05:51:12;98564.00;;;14.34;67.86
60240;BME280;46102;39.012;-7.064;2023-04-24T05:53:13;98570.16;;;14.31;67.88
60240;BME280;46102;39.012;-7.064;2023-04-24T05:55:14;98578.13;;;14.33;67.93
60240;BME280;46102;39.012;-7.064;2023-04-24T05:57:16;98578.34;;;14.40;67.55
60240;BME280;46102;39.012;-7.064;2023-04-24T05:59:27;98577.91;;;14.38;67.66
60240;BME280;46102;39.012;-7.064;2023-04-24T06:01:28;98580.00;;;14.41;67.30
60240;BME280;46102;39.012;-7.064;2023-04-24T06:03:41;98585.63;;;14.45;67.23
60240;BME280;46102;39.012;-7.064;2023-04-24T06:05:42;98586.09;;;14.47;67.12
60240;BME280;46102;39.012;-7.064;2023-04-24T06:07:44;98585.38;;;14.50;67.02
60240;BME280;46102;39.012;-7.064;2023-04-24T06:09:45;98588.16;;;14.50;66.98
60240;BME280;46102;39.012;-7.064;2023-04-24T06:11:47;98598.19;;;14.54;66.64
60240;BME280;46102;39.012;-7.064;2023-04-24T06:13:48;98593.59;;;14.58;66.75
60240;BME280;46102;39.012;-7.064;2023-04-24T06:16:08;98599.59;;;14.61;66.66
60240;BME280;46102;39.012;-7.064;2023-04-24T06:18:12;98607.63;;;14.66;66.35
60240;BME280;46102;39.012;-7.064;2023-04-24T06:20:14;98607.31;;;14.67;66.28
60240;BME280;46102;39.012;-7.064;2023-04-24T06:22:15;98617.69;;;14.70;66.31
60240;BME280;46102;39.012;-7.064;2023-04-24T06:24:16;98609.41;;;14.70;66.15
60240;BME280;46102;39.012;-7.064;2023-04-24T06:26:17;98609.16;;;14.75;66.08
60240;BME280;46102;39.012;-7.064;2023-04-24T06:28:17;98610.31;;;14.74;66.19
60240;BME280;46102;39.012;-7.064;2023-04-24T06:30:18;98614.47;;;14.81;65.98
60240;BME280;46102;39.012;-7.064;2023-04-24T06:32:20;98614.91;;;14.83;66.11
60240;BME280;46102;39.012;-7.064;2023-04-24T06:34:21;98610.44;;;14.90;65.88
60240;BME280;46102;39.012;-7.064;2023-04-24T06:36:21;98611.81;;;14.96;65.55
60240;BME280;46102;39.012;-7.064;2023-04-24T06:38:22;98610.44;;;15.03;65.14
60240;BME280;46102;39.012;-7.064;2023-04-24T06:40:23;98614.94;;;15.07;65.13
60240;BME280;46102;39.012;-7.064;2023-04-24T06:42:24;98619.09;;;15.13;65.20
60240;BME280;46102;39.012;-7.064;2023-04-24T06:44:25;98614.59;;;15.21;64.75
60240;BME280;46102;39.012;-7.064;2023-04-24T06:46:26;98620.22;;;15.37;64.61
60240;BME280;46102;39.012;-7.064;2023-04-24T06:48:28;98624.22;;;15.52;63.98
60240;BME280;46102;39.012;-7.064;2023-04-24T06:50:28;98624.19;;;15.64;63.74
60240;BME280;46102;39.012;-7.064;2023-04-24T06:52:29;98626.72;;;15.81;63.21
60240;BME280;46102;39.012;-7.064;2023-04-24T06:54:33;98619.28;;;15.98;62.57
60240;BME280;46102;39.012;-7.064;2023-04-24T06:56:34;98620.06;;;16.11;62.17
60240;BME280;46102;39.012;-7.064;2023-04-24T06:58:35;98624.38;;;16.24;61.67
60240;BME280;46102;39.012;-7.064;2023-04-24T07:00:36;98609.84;;;16.43;61.03
60240;BME280;46102;39.012;-7.064;2023-04-24T07:02:37;98617.03;;;16.60;60.14
60240;BME280;46102;39.012;-7.064;2023-04-24T07:04:38;98614.72;;;16.78;59.50
60240;BME280;46102;39.012;-7.064;2023-04-24T07:06:38;98614.13;;;16.84;59.32
60240;BME280;46102;39.012;-7.064;2023-04-24T07:08:39;98613.69;;;16.98;58.72
60240;BME280;46102;39.012;-7.064;2023-04-24T07:10:42;98611.44;;;17.04;58.68
60240;BME280;46102;39.012;-7.064;2023-04-24T07:12:43;98605.72;;;17.13;58.59
60240;BME280;46102;39.012;-7.064;2023-04-24T07:14:43;98606.06;;;17.27;57.97
60240;BME280;46102;39.012;-7.064;2023-04-24T07:16:44;98607.91;;;17.39;57.64
60240;BME280;46102;39.012;-7.064;2023-04-24T07:18:45;98603.56;;;17.57;56.69
60240;BME280;46102;39.012;-7.064;2023-04-24T07:20:46;98604.06;;;17.63;56.73
60240;BME280;46102;39.012;-7.064;2023-04-24T07:22:47;98609.25;;;17.64;56.54
60240;BME280;46102;39.012;-7.064;2023-04-24T07:24:49;98610.56;;;17.86;55.71
60240;BME280;46102;39.012;-7.064;2023-04-24T07:26:51;98612.69;;;17.93;55.18
60240;BME280;46102;39.012;-7.064;2023-04-24T07:28:52;98606.47;;;18.00;55.34
60240;BME280;46102;39.012;-7.064;2023-04-24T07:30:53;98611.38;;;18.06;54.73
60240;BME280;46102;39.012;-7.064;2023-04-24T07:32:54;98618.88;;;18.25;54.47
60240;BME280;46102;39.012;-7.064;2023-04-24T07:34:56;98616.41;;;18.40;53.95
60240;BME280;46102;39.012;-7.064;2023-04-24T07:36:57;98625.78;;;18.55;52.93
60240;BME280;46102;39.012;-7.064;2023-04-24T07:38:57;98619.19;;;18.63;53.01
60240;BME280;46102;39.012;-7.064;2023-04-24T07:40:58;98626.19;;;18.76;52.75
60240;BME280;46102;39.012;-7.064;2023-04-24T07:42:59;98623.19;;;18.85;52.81
60240;BME280;46102;39.012;-7.064;2023-04-24T07:45:00;98625.84;;;19.01;52.00
60240;BME280;46102;39.012;-7.064;2023-04-24T07:47:00;98635.53;;;19.10;52.03
60240;BME280;46102;39.012;-7.064;2023-04-24T07:49:01;98625.88;;;19.27;51.43
60240;BME280;46102;39.012;-7.064;2023-04-24T07:51:02;98628.06;;;19.41;50.85
60240;BME280;46102;39.012;-7.064;2023-04-24T07:53:03;98627.84;;;19.53;50.73
60240;BME280;46102;39.012;-7.064;2023-04-24T07:55:04;98630.72;;;19.61;50.28
60240;BME280;46102;39.012;-7.064;2023-04-24T07:57:05;98630.16;;;19.74;49.81
60240;BME280;46102;39.012;-7.064;2023-04-24T07:59:07;98631.06;;;19.82;49.98
60240;BME280;46102;39.012;-7.064;2023-04-24T08:01:08;98634.06;;;20.00;49.18
60240;BME280;46102;39.012;-7.064;2023-04-24T08:03:08;98637.81;;;20.11;49.09
60240;BME280;46102;39.012;-7.064;2023-04-24T08:05:09;98644.31;;;20.23;48.50
60240;BME280;46102;39.012;-7.064;2023-04-24T08:07:10;98636.41;;;20.28;48.50
60240;BME280;46102;39.012;-7.064;2023-04-24T08:09:13;98636.50;;;20.35;48.23
60240;BME280;46102;39.012;-7.064;2023-04-24T08:11:14;98633.78;;;20.43;48.50
60240;BME280;46102;39.012;-7.064;2023-04-24T08:13:14;98633.50;;;20.55;48.13
60240;BME280;46102;39.012;-7.064;2023-04-24T08:15:16;98636.09;;;20.71;47.80
60240;BME280;46102;39.012;-7.064;2023-04-24T08:17:17;98635.41;;;20.81;47.34
60240;BME280;46102;39.012;-7.064;2023-04-24T08:19:18;98635.09;;;20.93;46.92
60240;BME280;46102;39.012;-7.064;2023-04-24T08:21:19;98636.84;;;21.09;46.27
60240;BME280;46102;39.012;-7.064;2023-04-24T08:23:21;98635.78;;;21.28;45.92
60240;BME280;46102;39.012;-7.064;2023-04-24T08:25:22;98635.56;;;21.44;45.11
60240;BME280;46102;39.012;-7.064;2023-04-24T08:27:26;98627.31;;;21.65;44.75
60240;BME280;46102;39.012;-7.064;2023-04-24T08:29:26;98628.63;;;21.82;44.59
60240;BME280;46102;39.012;-7.064;2023-04-24T08:31:27;98624.63;;;21.83;44.32
60240;BME280;46102;39.012;-7.064;2023-04-24T08:33:28;98628.72;;;22.00;44.27
60240;BME280;46102;39.012;-7.064;2023-04-24T08:35:34;98622.84;;;22.23;43.62
60240;BME280;46102;39.012;-7.064;2023-04-24T08:37:35;98630.06;;;22.35;43.43
60240;BME280;46102;39.012;-7.064;2023-04-24T08:39:36;98628.13;;;22.57;43.15
60240;BME280;46102;39.012;-7.064;2023-04-24T08:41:37;98622.16;;;22.73;42.61
60240;BME280;46102;39.012;-7.064;2023-04-24T08:43:40;98626.16;;;22.82;41.92
60240;BME280;46102;39.012;-7.064;2023-04-24T08:45:41;98632.56;;;22.94;41.62
60240;BME280;46102;39.012;-7.064;2023-04-24T08:47:42;98641.81;;;23.09;41.21
60240;BME280;46102;39.012;-7.064;2023-04-24T08:49:43;98641.41;;;23.24;41.07
60240;BME280;46102;39.012;-7.064;2023-04-24T08:51:45;98637.38;;;23.43;40.19
60240;BME280;46102;39.012;-7.064;2023-04-24T08:53:47;98632.19;;;23.56;39.97
60240;BME280;46102;39.012;-7.064;2023-04-24T08:55:49;98638.97;;;23.66;39.71
60240;BME280;46102;39.012;-7.064;2023-04-24T08:57:51;98646.56;;;23.76;38.98
60240;BME280;46102;39.012;-7.064;2023-04-24T08:59:54;98641.38;;;23.78;39.18
60240;BME280;46102;39.012;-7.064;2023-04-24T09:01:57;98644.53;;;23.91;39.40
60240;BME280;46102;39.012;-7.064;2023-04-24T09:04:00;98644.03;;;24.21;38.33
60240;BME280;46102;39.012;-7.064;2023-04-24T09:06:03;98636.41;;;24.25;38.51
60240;BME280;46102;39.012;-7.064;2023-04-24T09:08:06;98640.75;;;24.34;38.68
60240;BME280;46102;39.012;-7.064;2023-04-24T09:10:08;98637.91;;;24.44;38.41
60240;BME280;46102;39.012;-7.064;2023-04-24T09:12:09;98633.84;;;24.63;38.10
60240;BME280;46102;39.012;-7.064;2023-04-24T09:14:10;98637.41;;;24.71;37.57
60240;BME280;46102;39.012;-7.064;2023-04-24T09:16:12;98640.88;;;24.93;37.44
60240;BME280;46102;39.012;-7.064;2023-04-24T09:18:14;98646.34;;;25.11;36.60
60240;BME280;46102;39.012;-7.064;2023-04-24T09:20:15;98642.66;;;25.25;36.57
60240;BME280;46102;39.012;-7.064;2023-04-24T09:22:16;98647.78;;;25.33;36.44
60240;BME280;46102;39.012;-7.064;2023-04-24T09:24:19;98650.38;;;25.55;36.06
60240;BME280;46102;39.012;-7.064;2023-04-24T09:26:22;98661.59;;;25.59;35.99
60240;BME280;46102;39.012;-7.064;2023-04-24T09:28:30;98660.75;;;25.62;35.53
60240;BME280;46102;39.012;-7.064;2023-04-24T09:30:31;98653.56;;;25.61;35.75
60240;BME280;46102;39.012;-7.064;2023-04-24T09:32:32;98653.19;;;25.55;36.04
60240;BME280;46102;39.012;-7.064;2023-04-24T09:34:33;98649.75;;;25.78;35.62
60240;BME280;46102;39.012;-7.064;2023-04-24T09:36:38;98639.22;;;25.89;35.04
60240;BME280;46102;39.012;-7.064;2023-04-24T09:38:40;98648.03;;;25.91;34.50
60240;BME280;46102;39.012;-7.064;2023-04-24T09:40:40;98641.50;;;26.02;34.41
60240;BME280;46102;39.012;-7.064;2023-04-24T09:42:52;98653.75;;;26.18;34.31
60240;BME280;46102;39.012;-7.064;2023-04-24T09:44:53;98644.78;;;26.31;33.95
60240;BME280;46102;39.012;-7.064;2023-04-24T09:46:55;98634.50;;;26.48;33.51
60240;BME280;46102;39.012;-7.064;2023-04-24T09:48:56;98639.88;;;26.69;32.99
60240;BME280;46102;39.012;-7.064;2023-04-24T09:50:57;98637.28;;;26.82;32.36
60240;BME280;46102;39.012;-7.064;2023-04-24T09:53:02;98647.13;;;26.94;31.85
60240;BME280;46102;39.012;-7.064;2023-04-24T09:55:02;98653.94;;;26.96;31.99
60240;BME280;46102;39.012;-7.064;2023-04-24T09:57:10;98633.28;;;27.07;32.25
60240;BME280;46102;39.012;-7.064;2023-04-24T09:59:13;98634.69;;;27.18;31.49
60240;BME280;46102;39.012;-7.064;2023-04-24T10:01:14;98635.47;;;27.23;31.18
60240;BME280;46102;39.012;-7.064;2023-04-24T10:03:17;98638.19;;;27.26;30.84
60240;BME280;46102;39.012;-7.064;2023-04-24T10:05:18;98637.78;;;27.28;30.98
60240;BME280;46102;39.012;-7.064;2023-04-24T10:07:19;98633.78;;;27.49;30.59
60240;BME280;46102;39.012;-7.064;2023-04-24T10:09:23;98639.78;;;27.74;30.40
60240;BME280;46102;39.012;-7.064;2023-04-24T10:11:25;98645.53;;;27.91;29.82
60240;BME280;46102;39.012;-7.064;2023-04-24T10:13:27;98640.06;;;28.03;29.71
60240;BME280;46102;39.012;-7.064;2023-04-24T10:15:29;98642.38;;;28.09;29.80
60240;BME280;46102;39.012;-7.064;2023-04-24T10:17:30;98635.13;;;28.28;29.80
60240;BME280;46102;39.012;-7.064;2023-04-24T10:19:32;98631.09;;;28.49;28.86
60240;BME280;46102;39.012;-7.064;2023-04-24T10:21:35;98636.59;;;28.72;28.08
60240;BME280;46102;39.012;-7.064;2023-04-24T10:23:37;98636.59;;;28.72;27.50
60240;BME280;46102;39.012;-7.064;2023-04-24T10:25:39;98632.88;;;28.75;27.83
60240;BME280;46102;39.012;-7.064;2023-04-24T10:27:40;98637.94;;;28.84;27.31
60240;BME280;46102;39.012;-7.064;2023-04-24T10:29:41;98632.22;;;28.88;27.57
60240;BME280;46102;39.012;-7.064;2023-04-24T10:31:44;98626.56;;;29.04;27.31
60240;BME280;46102;39.012;-7.064;2023-04-24T10:33:50;98634.63;;;29.22;26.64
60240;BME280;46102;39.012;-7.064;2023-04-24T10:35:51;98619.28;;;29.23;26.38
60240;BME280;46102;39.012;-7.064;2023-04-24T10:37:59;98629.94;;;29.32;25.83